Time;durP1;ratioP1;P1;durP2;ratioP2;P2;SDS_P1;SDS_P2;PMS_P1;PMS_P2;Temp;Humidity;BMP_temperature;BMP_pressure;BME280_temperature;BME280_humidity;BME280_pressure;Samples;Min_cycle;Max_cycle;Signal;HPM_P1;HPM_P2
2022/01/28 00:04:51;;;;;;;68.95;36.33;;;;;;;0.52;93.37;100380.53;1462481;86;22212;-85
2022/01/28 00:07:19;;;;;;;57.17;31.93;;;;;;;0.51;93.42;100382.30;1410006;89;22334;-84
2022/01/28 00:09:46;;;;;;;57.53;32.30;;;;;;;0.54;93.19;100373.48;1459767;88;22637;-84
2022/01/28 00:12:14;;;;;;;53.70;30.27;;;;;;;0.54;92.96;100371.71;1455438;88;21603;-85
2022/01/28 00:15:04;;;;;;;62.00;33.83;;;;;;;0.53;92.86;100373.95;1465462;87;21803;-85
2022/01/28 00:38:55;;;;;;;61.47;33.97;;;;;;;0.42;92.07;100358.91;1464279;87;22692;-84
2022/01/28 00:41:22;;;;;;;66.93;35.33;;;;;;;0.42;91.95;100355.47;1461432;85;21767;-84
2022/01/28 00:43:50;;;;;;;54.97;33.60;;;;;;;0.42;92.07;100351.56;1469382;88;22873;-84
2022/01/28 00:46:17;;;;;;;62.80;33.67;;;;;;;0.39;92.11;100348.67;1463830;87;22245;-83
2022/01/28 00:48:44;;;;;;;63.77;36.00;;;;;;;0.40;91.95;100341.69;1465038;86;21861;-83
2022/01/28 00:51:11;;;;;;;58.97;33.77;;;;;;;0.39;92.02;100335.65;1468645;87;22279;-83
2022/01/28 00:53:39;;;;;;;60.80;34.77;;;;;;;0.42;91.79;100329.44;1462252;87;21666;-84
2022/01/28 00:56:06;;;;;;;60.83;35.60;;;;;;;0.41;91.61;100322.09;1469122;88;21610;-83
2022/01/28 00:58:33;;;;;;;54.23;33.17;;;;;;;0.41;91.51;100310.38;1429951;89;21783;-86
2022/01/28 01:01:01;;;;;;;56.23;31.93;;;;;;;0.44;91.48;100309.37;1476275;87;21492;-87
2022/01/28 01:03:28;;;;;;;59.43;33.10;;;;;;;0.45;91.14;100301.45;1466845;87;21783;-85
2022/01/28 01:05:55;;;;;;;60.87;34.27;;;;;;;0.44;91.05;100310.67;1471002;87;21669;-85
2022/01/28 01:08:22;;;;;;;63.23;36.60;;;;;;;0.37;90.87;100324.47;1473561;88;21820;-85
2022/01/28 01:10:51;;;;;;;58.57;34.97;;;;;;;0.32;90.93;100321.30;1478672;88;21686;-85
2022/01/28 01:13:19;;;;;;;61.80;35.77;;;;;;;0.25;90.90;100317.34;1464586;87;21656;-84
2022/01/28 01:15:51;;;;;;;57.43;33.20;;;;;;;0.16;90.90;100313.95;1474509;86;21716;-85
2022/01/28 01:18:32;;;;;;;56.97;35.10;;;;;;;0.10;91.10;100323.41;1481384;86;21733;-86
2022/01/28 01:21:10;;;;;;;66.70;33.93;;;;;;;0.08;91.16;100326.54;1467077;87;21777;-85
2022/01/28 01:23:37;;;;;;;;;;;;;;;0.04;91.34;100335.45;1480367;86;21783;-86
2022/01/28 01:26:09;;;;;;;66.37;37.43;;;;;;;0.01;91.44;100335.61;1485719;86;21223;-87
2022/01/28 01:28:38;;;;;;;66.83;38.87;;;;;;;-0.05;91.51;100342.82;1477218;86;21732;-87
2022/01/28 01:31:13;;;;;;;64.70;35.57;;;;;;;-0.09;91.70;100339.98;1486707;86;22619;-85
2022/01/28 01:33:51;;;;;;;62.23;35.83;;;;;;;-0.10;91.58;100329.21;1482669;86;23924;-86
2022/01/28 01:36:13;;;;;;;60.70;35.43;;;;;;;-0.13;91.68;100324.17;1473888;86;22613;-84
2022/01/28 01:38:41;;;;;;;69.10;37.97;;;;;;;-0.16;91.63;100319.14;1475110;85;21830;-85
2022/01/28 01:41:15;;;;;;;65.77;37.40;;;;;;;-0.18;91.67;100319.67;1461872;86;21867;-85
2022/01/28 01:44:04;;;;;;;63.05;35.98;;;;;;;-0.16;91.29;100323.04;1481651;86;22715;-85
2022/01/28 01:46:48;;;;;;;60.90;34.03;;;;;;;-0.16;91.36;100299.62;1476715;86;22526;-86
2022/01/28 01:52:02;;;;;;;67.60;36.37;;;;;;;-0.19;91.09;100308.89;1467702;84;21649;-85
2022/01/28 01:54:39;;;;;;;61.93;36.47;;;;;;;-0.22;91.18;100306.93;1479083;86;21823;-84
2022/01/28 01:57:10;;;;;;;62.17;35.37;;;;;;;-0.25;91.21;100294.92;1453799;88;21987;-84
2022/01/28 01:59:41;;;;;;;70.20;37.37;;;;;;;-0.23;90.94;100299.59;1478737;86;22747;-85
2022/01/28 02:02:08;;;;;;;61.53;35.03;;;;;;;-0.22;90.92;100290.86;1437424;88;21873;-84
2022/01/28 02:04:35;;;;;;;60.33;35.77;;;;;;;-0.21;90.81;100275.62;1442868;88;22574;-83
2022/01/28 02:07:04;;;;;;;62.70;34.60;;;;;;;-0.23;90.81;100263.17;1447455;88;21681;-84
2022/01/28 02:09:32;;;;;;;59.40;34.10;;;;;;;-0.21;90.77;100260.02;1407161;91;22623;-83
2022/01/28 02:11:59;;;;;;;62.13;36.73;;;;;;;-0.23;90.49;100265.78;1445569;88;21911;-83
2022/01/28 02:14:26;;;;;;;58.73;32.47;;;;;;;-0.27;90.61;100262.95;1446299;88;21785;-83
2022/01/28 02:16:53;;;;;;;55.03;33.03;;;;;;;-0.26;90.59;100268.52;1430500;89;21849;-83
2022/01/28 02:19:21;;;;;;;60.53;33.27;;;;;;;-0.27;90.44;100288.48;1441795;87;21699;-84
2022/01/28 02:21:51;;;;;;;61.77;34.07;;;;;;;-0.26;90.45;100300.59;1458677;89;21653;-82
2022/01/28 02:24:23;;;;;;;62.60;35.73;;;;;;;-0.22;90.30;100300.42;1410888;89;21732;-81
2022/01/28 02:26:46;;;;;;;59.97;33.93;;;;;;;-0.24;90.22;100283.59;1456839;89;21773;-82
2022/01/28 02:29:25;;;;;;;65.60;34.77;;;;;;;-0.24;90.22;100279.69;1455391;89;21718;-83
2022/01/28 02:31:43;;;;;;;61.47;34.70;;;;;;;-0.26;90.15;100271.12;1459480;88;22702;-83
2022/01/28 02:34:11;;;;;;;63.77;34.53;;;;;;;-0.30;90.34;100252.24;1447166;88;21655;-82
2022/01/28 02:36:39;;;;;;;54.70;31.87;;;;;;;-0.33;90.40;100239.88;1421814;91;21640;-81
2022/01/28 02:39:07;;;;;;;56.83;32.53;;;;;;;-0.33;90.30;100239.88;1400004;90;22964;-81
2022/01/28 02:41:39;;;;;;;60.50;33.80;;;;;;;-0.34;90.25;100248.14;1433841;89;21653;-81
2022/01/28 02:44:23;;;;;;;56.83;32.30;;;;;;;-0.32;90.25;100246.74;1405747;91;21844;-81
2022/01/28 02:46:57;;;;;;;61.30;34.20;;;;;;;-0.32;90.04;100237.64;1440570;89;21923;-82
2022/01/28 02:49:25;;;;;;;57.10;32.70;;;;;;;-0.32;89.95;100224.17;1414102;89;21757;-81
2022/01/28 02:51:51;;;;;;;56.50;33.43;;;;;;;-0.33;89.84;100223.80;1418401;91;22610;-82
2022/01/28 02:54:19;;;;;;;57.57;33.80;;;;;;;-0.36;89.67;100221.38;1416656;91;22818;-81
2022/01/28 02:56:52;;;;;;;57.23;33.83;;;;;;;-0.41;89.77;100212.97;1413456;91;21742;-83
2022/01/28 02:59:19;;;;;;;58.80;33.50;;;;;;;-0.41;89.80;100205.64;1389560;92;21887;-84
2022/01/28 03:01:47;;;;;;;55.80;32.07;;;;;;;-0.49;89.92;100204.30;1405285;92;21849;-84
2022/01/28 03:04:41;;;;;;;55.67;31.50;;;;;;;-0.48;89.93;100185.17;1415466;90;21800;-82
2022/01/28 03:06:43;;;;;;;60.13;32.77;;;;;;;-0.47;89.84;100185.54;1419695;90;21879;-84
2022/01/28 03:09:18;;;;;;;57.10;30.67;;;;;;;-0.50;90.04;100183.58;1417355;91;21753;-84
2022/01/28 03:11:44;;;;;;;54.37;31.07;;;;;;;-0.52;90.10;100179.77;1419886;91;21812;-83
2022/01/28 03:19:27;;;;;;;62.20;31.53;;;;;;;-0.55;90.13;100174.71;1413497;89;21924;-84
2022/01/28 03:21:54;;;;;;;56.40;31.93;;;;;;;-0.55;90.17;100169.52;1417728;90;21755;-83
2022/01/28 03:24:25;;;;;;;54.87;29.63;;;;;;;-0.57;90.39;100164.88;1420357;89;22007;-83
2022/01/28 03:27:00;;;;;;;52.17;26.75;;;;;;;-0.59;90.47;100157.62;1440086;88;21694;-81
2022/01/28 03:29:24;;;;;;;55.80;33.10;;;;;;;-0.62;90.54;100159.09;1440623;89;21494;-82
2022/01/28 03:31:52;;;;;;;53.73;32.07;;;;;;;-0.60;90.71;100167.65;1446551;88;21837;-83
2022/01/28 03:34:20;;;;;;;57.00;31.20;;;;;;;-0.59;90.70;100169.31;1436927;89;21840;-83
2022/01/28 03:36:50;;;;;;;52.78;32.08;;;;;;;-0.57;90.55;100168.78;1420951;90;22059;-83
2022/01/28 03:39:19;;;;;;;54.80;29.85;;;;;;;-0.56;90.62;100168.31;1409537;91;21386;-83
2022/01/28 03:41:46;;;;;;;51.63;27.87;;;;;;;-0.54;90.47;100177.71;1416413;91;21503;-82
2022/01/28 03:44:13;;;;;;;54.43;31.43;;;;;;;-0.56;90.56;100184.75;1435981;89;22177;-82
2022/01/28 03:46:40;;;;;;;50.47;29.37;;;;;;;-0.56;90.38;100179.55;1443738;89;22323;-83
2022/01/28 03:49:09;;;;;;;53.17;30.43;;;;;;;-0.57;90.25;100189.58;1396970;92;21626;-84
2022/01/28 03:51:36;;;;;;;48.13;28.87;;;;;;;-0.64;90.39;100183.48;1439329;90;21548;-83
2022/01/28 03:54:03;;;;;;;52.17;29.30;;;;;;;-0.70;90.63;100182.05;1434519;90;21617;-84
2022/01/28 03:56:31;;;;;;;48.77;28.97;;;;;;;-0.72;90.71;100185.17;1431390;90;21733;-85
2022/01/28 03:58:59;;;;;;;52.07;29.20;;;;;;;-0.76;91.33;100199.27;1433840;90;23233;-84
2022/01/28 04:01:32;;;;;;;46.73;26.00;;;;;;;-0.76;91.24;100204.47;1398757;91;22152;-83
2022/01/28 04:11:47;;;;;;;46.63;27.73;;;;;;;-0.75;91.19;100210.03;1372939;91;22547;-84
2022/01/28 04:14:19;;;;;;;48.57;28.53;;;;;;;-0.76;91.00;100214.86;1409597;91;22144;-83
2022/01/28 04:19:28;;;;;;;47.00;26.67;;;;;;;-0.72;90.73;100228.06;1415146;91;21482;-84
2022/01/28 04:21:55;;;;;;;46.35;27.62;;;;;;;-0.71;90.56;100229.77;1446151;89;23186;-83
2022/01/28 04:24:22;;;;;;;48.30;28.55;;;;;;;-0.70;90.27;100233.56;1449897;89;21470;-85
2022/01/28 04:26:49;;;;;;;43.90;26.65;;;;;;;-0.69;90.15;100227.92;1442897;89;22411;-84
2022/01/28 04:29:16;;;;;;;49.55;27.05;;;;;;;-0.66;90.02;100228.20;1436416;89;21603;-85
2022/01/28 04:31:46;;;;;;;48.45;28.40;;;;;;;-0.67;89.80;100210.47;1435187;88;21538;-84
2022/01/28 04:34:16;;;;;;;54.42;29.00;;;;;;;-0.65;89.54;100203.44;1438408;89;21452;-84
2022/01/28 04:37:09;;;;;;;46.25;26.62;;;;;;;-0.64;89.49;100202.51;1438065;87;21597;-84
2022/01/28 04:42:06;;;;;;;60.00;34.60;;;;;;;-0.60;89.14;100187.61;1416536;90;21502;-82
2022/01/28 04:44:38;;;;;;;50.63;29.02;;;;;;;-0.63;88.60;100183.41;1449023;88;21540;-83
2022/01/28 04:47:08;;;;;;;52.90;30.45;;;;;;;-0.63;88.59;100186.02;1424452;90;21486;-83
2022/01/28 05:00:41;;;;;;;53.73;30.03;;;;;;;-0.65;88.39;100212.54;1432705;89;21604;-83
2022/01/28 05:26:59;;;;;;;55.17;29.57;;;;;;;-0.70;87.80;100243.13;1390409;92;21605;-84
2022/01/28 05:29:23;;;;;;;56.95;30.37;;;;;;;-0.67;87.77;100233.03;1431818;89;21600;-84
2022/01/28 05:31:51;;;;;;;56.07;29.40;;;;;;;-0.65;87.76;100226.84;1440683;89;21600;-83
2022/01/28 05:34:18;;;;;;;56.90;31.17;;;;;;;-0.66;87.34;100234.70;1452936;88;22618;-84
2022/01/28 05:36:45;;;;;;;53.00;29.95;;;;;;;-0.65;87.58;100232.03;1470915;87;21530;-86
2022/01/28 05:39:13;;;;;;;50.95;30.80;;;;;;;-0.63;87.58;100244.93;1466003;87;21443;-85
2022/01/28 05:41:40;;;;;;;55.70;31.83;;;;;;;-0.63;87.50;100237.13;1454768;87;21419;-83
2022/01/28 05:44:07;;;;;;;59.65;31.07;;;;;;;-0.63;87.45;100257.49;1445081;88;21832;-85
2022/01/28 05:46:34;;;;;;;54.77;30.87;;;;;;;-0.63;87.40;100260.09;1437971;88;21441;-84
2022/01/28 05:49:02;;;;;;;60.17;33.50;;;;;;;-0.64;87.45;100253.19;1437749;88;23005;-83
2022/01/28 05:51:29;;;;;;;63.47;34.27;;;;;;;-0.63;87.51;100244.50;1457462;88;21768;-82
2022/01/28 05:53:59;;;;;;;68.47;34.97;;;;;;;-0.59;87.51;100243.40;1455859;88;21620;-83
2022/01/28 05:56:27;;;;;;;58.10;31.63;;;;;;;-0.57;87.48;100241.57;1453810;88;24394;-82
2022/01/28 05:58:55;;;;;;;61.13;33.13;;;;;;;-0.58;87.20;100221.67;1467298;87;21853;-84
2022/01/28 06:01:22;;;;;;;86.83;44.47;;;;;;;-0.56;87.34;100215.94;1465177;87;22558;-84
2022/01/28 06:03:50;;;;;;;84.93;44.53;;;;;;;-0.55;87.62;100241.00;1441871;88;22062;-84
2022/01/28 06:06:24;;;;;;;73.33;38.92;;;;;;;-0.62;87.73;100259.16;1460118;87;21656;-84
2022/01/28 06:08:53;;;;;;;74.77;38.93;;;;;;;-0.65;88.00;100268.42;1429591;89;21637;-84
2022/01/28 06:11:22;;;;;;;75.80;40.15;;;;;;;-0.63;87.86;100269.62;1440014;88;21556;-85
2022/01/28 06:13:50;;;;;;;69.30;37.53;;;;;;;-0.64;88.18;100277.89;1446998;88;21407;-85
2022/01/28 06:16:20;;;;;;;72.53;37.60;;;;;;;-0.58;88.31;100284.53;1446842;88;21509;-86
2022/01/28 06:18:48;;;;;;;74.58;40.83;;;;;;;-0.49;88.42;100284.04;1449709;88;21385;-86
2022/01/28 06:21:16;;;;;;;66.62;37.05;;;;;;;-0.50;87.95;100283.20;1423426;90;21449;-86
2022/01/28 06:23:43;;;;;;;60.77;32.40;;;;;;;-0.46;87.94;100283.91;1419164;89;21527;-87
2022/01/28 06:26:11;;;;;;;60.67;32.42;;;;;;;-0.41;88.07;100291.45;1451987;87;23246;-85
2022/01/28 06:28:39;;;;;;;55.90;31.45;;;;;;;-0.39;87.84;100288.31;1449128;88;21640;-85
2022/01/28 06:31:06;;;;;;;62.83;33.60;;;;;;;-0.43;87.64;100290.24;1446359;88;23338;-88
2022/01/28 06:33:33;;;;;;;56.90;30.80;;;;;;;-0.46;87.62;100295.14;1440284;89;22139;-87
2022/01/28 06:36:02;;;;;;;58.47;33.03;;;;;;;-0.44;87.84;100295.52;1455464;87;23350;-87
2022/01/28 06:38:30;;;;;;;53.67;30.57;;;;;;;-0.44;87.58;100299.41;1452213;88;21841;-86
2022/01/28 06:40:57;;;;;;;57.17;30.72;;;;;;;-0.41;87.67;100284.95;1442231;88;22372;-87
2022/01/28 06:43:24;;;;;;;52.87;31.07;;;;;;;-0.40;87.35;100288.78;1440811;88;22388;-87
2022/01/28 06:45:51;;;;;;;54.60;31.60;;;;;;;-0.40;87.14;100272.31;1460394;89;21553;-87
2022/01/28 06:48:19;;;;;;;66.75;35.73;;;;;;;-0.42;86.90;100272.41;1450032;88;22001;-88
2022/01/28 06:50:47;;;;;;;61.53;35.75;;;;;;;-0.45;86.63;100285.58;1442107;88;21414;-87
2022/01/28 06:53:16;;;;;;;73.33;39.97;;;;;;;-0.39;87.07;100281.81;1460558;89;21669;-88
2022/01/28 06:55:43;;;;;;;71.57;40.17;;;;;;;-0.33;87.35;100272.38;1442570;89;21903;-86
2022/01/28 06:58:10;;;;;;;60.77;34.73;;;;;;;-0.34;87.19;100277.22;1433203;88;21597;-87
2022/01/28 07:00:40;;;;;;;59.03;35.30;;;;;;;-0.31;87.41;100257.55;1441619;89;21681;-86
2022/01/28 07:03:11;;;;;;;61.20;36.47;;;;;;;-0.28;87.37;100257.37;1457580;88;21921;-87
2022/01/28 07:05:39;;;;;;;61.97;31.90;;;;;;;-0.24;87.60;100260.17;1435833;88;22404;-86
2022/01/28 07:08:08;;;;;;;73.77;38.87;;;;;;;-0.16;87.64;100265.81;1444329;88;21737;-86
2022/01/28 07:10:36;;;;;;;65.43;33.47;;;;;;;-0.12;87.89;100269.91;1436850;88;21627;-87
2022/01/28 07:13:04;;;;;;;51.57;27.47;;;;;;;-0.06;88.06;100273.51;1427899;89;21607;-87
2022/01/28 07:15:31;;;;;;;50.67;27.57;;;;;;;0.00;88.38;100273.63;1425970;90;22569;-84
2022/01/28 07:18:02;;;;;;;48.63;26.27;;;;;;;0.06;88.40;100271.13;1435610;89;21652;-86
2022/01/28 07:20:34;;;;;;;58.08;28.50;;;;;;;0.13;88.36;100277.69;1430106;89;22692;-85
2022/01/28 07:23:02;;;;;;;50.30;26.00;;;;;;;0.19;88.39;100283.38;1433393;89;21393;-85
2022/01/28 07:25:30;;;;;;;45.57;23.13;;;;;;;0.29;88.37;100278.52;1421276;91;21857;-83
2022/01/28 07:27:58;;;;;;;49.57;25.20;;;;;;;0.37;88.42;100285.42;1418241;89;21889;-82
2022/01/28 07:30:25;;;;;;;42.17;24.97;;;;;;;0.51;88.44;100277.30;1418992;91;21869;-83
2022/01/28 07:32:52;;;;;;;48.53;26.67;;;;;;;0.64;88.33;100287.41;1431968;89;22394;-82
2022/01/28 07:35:20;;;;;;;48.47;28.13;;;;;;;0.76;88.27;100284.09;1429223;89;22495;-83
2022/01/28 07:37:47;;;;;;;40.77;23.93;;;;;;;0.89;88.10;100295.49;1437057;89;21686;-78
2022/01/28 07:40:14;;;;;;;43.63;24.00;;;;;;;0.95;87.07;100298.64;1439975;89;22554;-83
2022/01/28 07:42:42;;;;;;;46.13;24.77;;;;;;;1.07;87.45;100303.16;1431332;90;21606;-82
2022/01/28 07:45:14;;;;;;;41.20;24.93;;;;;;;1.18;87.06;100298.16;1437595;88;23740;-81
2022/01/28 07:47:43;;;;;;;43.27;24.47;;;;;;;1.32;87.18;100304.70;1439447;88;21863;-81
2022/01/28 07:50:13;;;;;;;41.47;25.13;;;;;;;1.45;86.99;100295.66;1430083;89;21676;-81
2022/01/28 07:52:44;;;;;;;37.90;22.57;;;;;;;1.56;86.48;100297.63;1443926;88;21829;-81
2022/01/28 07:55:13;;;;;;;42.83;23.30;;;;;;;1.70;85.99;100295.48;1446215;88;21741;-81
2022/01/28 07:57:45;;;;;;;37.73;21.70;;;;;;;1.83;86.09;100292.95;1430046;89;21721;-77
2022/01/28 08:00:14;;;;;;;54.37;29.17;;;;;;;1.96;85.76;100292.56;1439906;87;22849;-77
2022/01/28 08:02:46;;;;;;;49.70;27.13;;;;;;;2.08;85.04;100289.65;1452848;87;21776;-76
2022/01/28 08:05:12;;;;;;;35.73;21.90;;;;;;;2.21;85.41;100293.98;1432472;88;21819;-87
2022/01/28 08:07:40;;;;;;;34.07;21.43;;;;;;;2.24;83.67;100291.64;1447262;87;21886;-86
2022/01/28 08:10:08;;;;;;;32.13;18.83;;;;;;;2.43;83.01;100280.86;1411213;90;21940;-87
2022/01/28 08:12:52;;;;;;;35.77;19.87;;;;;;;2.43;83.01;100280.86;1448689;87;21940;-85
2022/01/28 08:15:21;;;;;;;32.83;19.60;;;;;;;2.65;83.58;100282.45;1448566;89;21850;-89
2022/01/28 08:17:48;;;;;;;28.13;17.03;;;;;;;2.65;83.58;100282.45;1432362;89;23017;-87
2022/01/28 08:20:16;;;;;;;31.17;18.83;;;;;;;2.80;82.23;100278.47;1452026;88;21854;-88
2022/01/28 08:22:50;;;;;;;23.13;13.37;;;;;;;2.80;82.23;100278.47;1455620;88;22113;-87
2022/01/28 08:25:21;;;;;;;21.10;14.10;;;;;;;2.90;81.08;100280.82;1456365;88;22000;-87
2022/01/28 08:27:50;;;;;;;20.40;14.07;;;;;;;2.92;80.67;100274.55;1460054;88;21923;-86
2022/01/28 08:30:20;;;;;;;24.37;14.63;;;;;;;2.99;80.13;100278.89;1449157;88;21567;-87
2022/01/28 08:32:49;;;;;;;23.42;15.03;;;;;;;3.05;78.91;100279.81;1432261;88;22188;-88
2022/01/28 08:35:24;;;;;;;19.17;12.07;;;;;;;3.19;78.26;100268.88;1437083;89;21308;-86
2022/01/28 08:37:50;;;;;;;18.47;11.93;;;;;;;3.19;78.26;100268.88;1421151;91;22409;-86
2022/01/28 08:40:19;;;;;;;18.92;11.65;;;;;;;3.30;77.38;100277.66;1403278;91;23212;-85
2022/01/28 08:42:47;;;;;;;20.00;11.07;;;;;;;3.38;76.33;100272.75;1422341;91;21488;-90
2022/01/28 08:45:14;;;;;;;21.27;12.03;;;;;;;3.45;76.29;100281.00;1420127;89;22191;-87
2022/01/28 08:47:44;;;;;;;17.97;10.87;;;;;;;3.51;75.46;100275.38;1441069;86;23129;-86
2022/01/28 08:50:11;;;;;;;17.97;10.20;;;;;;;3.61;73.96;100272.94;1442803;87;22102;-87
2022/01/28 08:52:38;;;;;;;14.97;9.03;;;;;;;3.77;75.70;100280.55;1450250;89;22136;-87
2022/01/28 08:55:07;;;;;;;17.77;11.07;;;;;;;4.07;73.23;100282.31;1448630;88;22228;-87
2022/01/28 08:57:34;;;;;;;15.70;9.23;;;;;;;4.07;73.23;100282.31;1429814;88;21452;-90
2022/01/28 09:00:07;;;;;;;12.17;7.87;;;;;;;4.43;72.03;100276.70;1432687;89;21719;-87
2022/01/28 09:02:30;;;;;;;11.73;7.27;;;;;;;4.43;72.03;100276.70;1433415;88;21538;-85
2022/01/28 09:04:57;;;;;;;9.70;5.97;;;;;;;4.62;69.67;100280.58;1446915;87;21447;-86
2022/01/28 09:07:24;;;;;;;12.00;7.17;;;;;;;4.76;70.96;100288.27;1445331;88;25152;-87
2022/01/28 09:09:52;;;;;;;12.80;8.20;;;;;;;4.96;69.84;100277.59;1427747;88;21456;-86
2022/01/28 09:12:39;;;;;;;12.23;8.10;;;;;;;5.18;71.25;100279.45;1443763;87;21449;-87
2022/01/28 09:15:05;;;;;;;13.93;7.97;;;;;;;5.37;68.42;100282.31;1421594;88;22018;-87
2022/01/28 09:17:33;;;;;;;14.87;8.73;;;;;;;5.51;66.62;100277.32;1443444;86;21492;-88
2022/01/28 09:20:01;;;;;;;15.63;7.83;;;;;;;5.53;67.39;100285.92;1441497;89;22566;-85
2022/01/28 09:22:29;;;;;;;13.63;8.30;;;;;;;5.52;66.37;100277.67;1404601;90;21671;-86
2022/01/28 09:24:56;;;;;;;11.70;7.50;;;;;;;5.54;66.66;100281.50;1411135;89;21602;-87
2022/01/28 09:27:23;;;;;;;11.93;7.50;;;;;;;5.52;65.56;100277.67;1419223;89;21517;-85
2022/01/28 09:29:50;;;;;;;14.00;8.10;;;;;;;5.51;66.37;100281.74;1393683;91;21512;-87
2022/01/28 09:32:17;;;;;;;12.10;7.57;;;;;;;5.41;66.13;100277.20;1405564;90;21472;-86
2022/01/28 09:34:45;;;;;;;11.60;7.37;;;;;;;5.40;65.72;100284.70;1444013;88;22494;-85
2022/01/28 09:37:13;;;;;;;12.10;7.10;;;;;;;5.34;65.26;100286.48;1438862;89;21441;-86
2022/01/28 09:39:45;;;;;;;10.40;6.83;;;;;;;5.29;65.50;100278.13;1442651;89;21405;-88
2022/01/28 09:42:21;;;;;;;12.27;5.87;;;;;;;5.30;66.38;100273.26;1481598;88;21443;-86
2022/01/28 09:44:48;;;;;;;11.03;6.07;;;;;;;5.38;64.78;100268.26;1444552;88;22632;-86
2022/01/28 09:47:16;;;;;;;14.10;7.93;;;;;;;5.54;63.94;100277.56;1433064;89;21451;-86
2022/01/28 09:49:44;;;;;;;9.63;6.20;;;;;;;6.00;65.42;100274.81;1406525;89;21384;-87
2022/01/28 09:52:12;;;;;;;9.70;6.50;;;;;;;6.30;64.38;100270.23;1397520;91;23405;-86
2022/01/28 09:54:43;;;;;;;10.67;6.17;;;;;;;6.42;64.98;100275.45;1436771;89;21581;-85
2022/01/28 09:57:10;;;;;;;8.27;5.50;;;;;;;6.54;64.26;100271.81;1453547;88;21923;-87
2022/01/28 09:59:38;;;;;;;8.40;5.57;;;;;;;6.74;63.58;100270.18;1448267;88;21442;-86
2022/01/28 10:02:05;;;;;;;9.33;5.00;;;;;;;6.80;62.99;100270.16;1454228;88;21482;-87
2022/01/28 10:04:32;;;;;;;7.23;4.97;;;;;;;6.99;63.15;100269.81;1463097;86;21419;-86
2022/01/28 10:07:12;;;;;;;7.33;5.30;;;;;;;7.48;62.19;100251.66;1451643;88;21485;-87
2022/01/28 10:09:57;;;;;;;8.33;4.50;;;;;;;7.73;62.44;100252.16;1435483;89;21548;-86
2022/01/28 10:12:39;;;;;;;9.40;5.17;;;;;;;8.14;61.72;100245.41;1418162;90;21613;-89
2022/01/28 10:15:16;;;;;;;7.17;4.53;;;;;;;8.19;60.82;100246.30;1456401;88;22446;-88
2022/01/28 10:17:55;;;;;;;11.60;5.97;;;;;;;8.28;60.92;100248.60;1432627;88;21627;-86
2022/01/28 10:20:25;;;;;;;7.67;4.43;;;;;;;8.34;61.77;100248.05;1455985;86;21656;-87
2022/01/28 10:22:59;;;;;;;6.37;4.30;;;;;;;8.33;59.99;100255.62;1476403;86;21470;-88
2022/01/28 10:25:34;;;;;;;6.60;3.80;;;;;;;8.49;60.15;100253.31;1458192;87;21486;-83
2022/01/28 10:28:14;;;;;;;5.70;4.07;;;;;;;8.78;58.97;100247.20;1453273;86;21405;-82
2022/01/28 10:30:49;;;;;;;6.77;4.23;;;;;;;9.02;56.18;100239.65;1438990;87;21645;-84
2022/01/28 10:33:21;;;;;;;5.10;3.30;;;;;;;9.18;55.80;100238.24;1467193;86;21562;-83
2022/01/28 10:35:56;;;;;;;6.77;3.60;;;;;;;9.03;56.75;100246.61;1450886;87;23287;-82
2022/01/28 10:38:34;;;;;;;4.03;2.53;;;;;;;8.80;56.03;100251.83;1461631;88;21875;-84
2022/01/28 10:41:15;;;;;;;5.23;3.23;;;;;;;8.52;53.02;100249.57;1467804;87;21396;-84
2022/01/28 10:43:51;;;;;;;5.20;3.67;;;;;;;8.50;56.88;100249.70;1460440;87;22537;-81
2022/01/28 10:46:30;;;;;;;2.20;1.43;;;;;;;8.33;54.87;100241.95;1467312;86;22594;-83
2022/01/28 10:49:02;;;;;;;4.47;2.13;;;;;;;8.17;55.37;100247.41;1450380;88;21488;-88
2022/01/28 10:51:47;;;;;;;2.60;1.67;;;;;;;8.04;55.40;100245.86;1458313;87;22420;-86
2022/01/28 10:54:20;;;;;;;3.30;1.50;;;;;;;7.84;54.17;100241.52;1433854;88;21421;-86
2022/01/28 10:56:57;;;;;;;2.43;1.60;;;;;;;7.75;53.58;100247.59;1462766;87;22457;-87
2022/01/28 10:59:34;;;;;;;3.60;2.00;;;;;;;7.64;54.32;100248.03;1453417;88;22486;-86
2022/01/28 11:02:04;;;;;;;1.73;1.00;;;;;;;7.48;53.86;100251.66;1458646;88;21458;-88
2022/01/28 11:04:33;;;;;;;1.90;1.13;;;;;;;7.23;52.95;100251.11;1455946;88;22660;-88
2022/01/28 11:07:03;;;;;;;2.17;1.27;;;;;;;7.19;52.85;100257.61;1448324;86;21673;-87
2022/01/28 11:09:30;;;;;;;3.87;1.87;;;;;;;7.15;54.19;100263.25;1457999;87;21496;-88
2022/01/28 11:11:58;;;;;;;4.97;1.90;;;;;;;7.13;53.36;100267.31;1452124;87;21473;-85
2022/01/28 11:14:25;;;;;;;2.87;1.70;;;;;;;7.21;54.97;100276.72;1452045;86;21481;-87
2022/01/28 11:16:52;;;;;;;2.73;1.77;;;;;;;7.21;54.75;100273.27;1427600;88;21346;-88
2022/01/28 11:19:22;;;;;;;2.20;1.23;;;;;;;7.29;55.50;100272.62;1407942;90;21453;-87
2022/01/28 11:22:18;;;;;;;4.13;1.90;;;;;;;7.45;56.10;100276.91;1425084;89;22609;-86
2022/01/28 11:25:03;;;;;;;3.47;1.77;;;;;;;7.60;55.19;100271.67;1422678;89;21413;-87
2022/01/28 11:27:37;;;;;;;1.63;1.17;;;;;;;7.59;53.64;100271.30;1450127;87;22500;-86
2022/01/28 11:30:22;;;;;;;4.77;1.70;;;;;;;7.64;54.41;100274.37;1445202;88;21393;-87
2022/01/28 11:33:12;;;;;;;2.93;1.47;;;;;;;7.66;53.90;100267.67;1433259;89;21377;-88
2022/01/28 11:36:00;;;;;;;3.23;1.57;;;;;;;7.67;54.52;100271.47;1427246;89;21452;-88
2022/01/28 11:38:33;;;;;;;3.63;1.67;;;;;;;7.72;52.63;100262.36;1420356;89;21667;-86
2022/01/28 11:41:07;;;;;;;1.87;1.17;;;;;;;7.76;54.46;100263.74;1426135;88;21487;-87
2022/01/28 11:43:54;;;;;;;3.03;1.33;;;;;;;7.80;53.60;100260.72;1418088;89;21523;-85
2022/01/28 11:46:36;;;;;;;2.47;1.30;;;;;;;7.77;53.09;100263.63;1403003;90;21433;-86
2022/01/28 11:49:08;;;;;;;3.93;1.43;;;;;;;7.78;51.96;100259.19;1429770;88;21466;-89
2022/01/28 11:51:41;;;;;;;4.53;1.30;;;;;;;7.71;51.69;100262.84;1457917;88;22389;-83
2022/01/28 11:54:13;;;;;;;3.50;1.40;;;;;;;7.73;52.71;100254.80;1443738;88;22391;-87
2022/01/28 11:57:02;;;;;;;2.10;1.20;;;;;;;7.75;53.29;100266.87;1459418;88;21456;-86
2022/01/28 11:59:30;;;;;;;3.17;1.60;;;;;;;7.66;50.85;100261.09;1459854;87;21406;-86
2022/01/28 12:02:03;;;;;;;2.63;1.37;;;;;;;7.63;53.59;100271.40;1460470;87;21385;-85
2022/01/28 12:04:36;;;;;;;3.63;1.47;;;;;;;7.57;52.49;100269.30;1437101;87;22574;-86
2022/01/28 12:07:14;;;;;;;3.63;1.23;;;;;;;7.50;52.45;100273.41;1426698;88;23493;-85
2022/01/28 12:09:50;;;;;;;4.80;1.67;;;;;;;7.43;52.36;100270.48;1438013;89;21548;-85
2022/01/28 12:12:31;;;;;;;3.77;1.40;;;;;;;7.41;53.69;100274.20;1438255;88;23490;-85
2022/01/28 12:15:10;;;;;;;;;;;;;;;7.39;53.53;100277.44;1450834;87;21547;-86
2022/01/28 12:17:41;;;;;;;1.67;1.10;;;;;;;7.38;53.01;100277.09;1410521;89;20558;-86
2022/01/28 12:20:22;;;;;;;1.53;1.00;;;;;;;7.30;51.60;100283.00;1412334;89;21538;-85
2022/01/28 12:23:14;;;;;;;1.42;0.60;;;;;;;7.20;52.32;100286.91;1445721;89;22389;-86
2022/01/28 12:25:46;;;;;;;2.23;1.00;;;;;;;7.14;53.10;100284.80;1428756;88;21567;-84
2022/01/28 12:28:22;;;;;;;0.93;0.80;;;;;;;7.05;52.68;100279.00;1445174;87;21548;-87
2022/01/28 12:31:07;;;;;;;2.00;1.10;;;;;;;6.94;51.79;100288.27;1407534;89;23151;-87
2022/01/28 12:33:39;;;;;;;1.93;0.80;;;;;;;6.78;51.77;100288.20;1462467;86;21477;-87
2022/01/28 12:36:23;;;;;;;2.77;1.10;;;;;;;6.72;51.31;100283.45;1457924;87;21405;-87
2022/01/28 12:39:08;;;;;;;2.23;1.00;;;;;;;6.67;51.24;100286.92;1438331;86;22354;-86
2022/01/28 12:41:40;;;;;;;3.63;1.67;;;;;;;6.66;52.92;100285.27;1464958;86;21534;-85
2022/01/28 12:43:59;;;;;;;1.93;1.47;;;;;;;6.66;52.61;100283.12;1449554;87;22412;-85
2022/01/28 12:46:28;;;;;;;4.60;1.70;;;;;;;6.67;52.56;100276.89;1456544;86;21480;-86
2022/01/28 12:48:55;;;;;;;5.77;1.27;;;;;;;6.63;53.28;100285.52;1462345;87;21404;-86
2022/01/28 12:51:26;;;;;;;1.97;1.10;;;;;;;6.63;53.05;100286.84;1428632;89;21503;-85
2022/01/28 12:53:57;;;;;;;5.17;1.45;;;;;;;6.63;53.21;100286.84;1438254;89;21577;-85
2022/01/28 12:56:36;;;;;;;;;;;;;;;6.57;53.02;100281.25;1441672;90;21583;-85